Time;durP1;ratioP1;P1;durP2;ratioP2;P2;SDS_P1;SDS_P2;PMS_P1;PMS_P2;Temp;Humidity;BMP_temperature;BMP_pressure;BME280_temperature;BME280_humidity;BME280_pressure;Samples;Min_cycle;Max_cycle;Signal;HPM_P1;HPM_P2
2022/05/13 00:00:33;;;;;;;3.30;2.85;;;13.20;97.80;;;;;;4335489;28;10001137;-68
2022/05/13 00:02:59;;;;;;;8.77;3.50;;;13.20;98.20;;;;;;5022207;28;20246;-68
2022/05/13 00:05:25;;;;;;;6.47;3.53;;;13.10;98.60;;;;;;5027027;28;20693;-68
2022/05/13 00:07:50;;;;;;;5.82;3.72;;;13.10;99.20;;;;;;5025917;28;20533;-68
2022/05/13 00:10:16;;;;;;;3.80;2.80;;;13.10;99.50;;;;;;5026691;28;20100;-68
2022/05/13 00:12:42;;;;;;;7.63;4.05;;;13.00;99.80;;;;;;5027117;28;20142;-67
2022/05/13 00:15:13;;;;;;;4.03;3.42;;;12.90;99.90;;;;;;5027249;28;20049;-67
2022/05/13 00:17:39;;;;;;;5.22;3.13;;;12.90;99.90;;;;;;5027367;28;20037;-68
2022/05/13 00:20:07;;;;;;;4.03;3.50;;;12.90;99.90;;;;;;5021951;28;20414;-67
2022/05/13 00:22:32;;;;;;;4.63;3.33;;;12.90;99.90;;;;;;5023587;28;20105;-68
2022/05/13 00:24:58;;;;;;;7.20;3.92;;;12.80;99.90;;;;;;5025088;28;20575;-68
2022/05/13 00:27:24;;;;;;;5.35;3.97;;;12.80;99.90;;;;;;5028594;28;20052;-68
2022/05/13 00:29:50;;;;;;;6.82;4.13;;;12.80;99.90;;;;;;5017074;28;20231;-68
2022/05/13 00:32:17;;;;;;;7.85;4.00;;;12.80;99.90;;;;;;5025493;28;20112;-67
2022/05/13 00:34:43;;;;;;;6.22;3.42;;;12.70;99.90;;;;;;5021154;28;20056;-68
2022/05/13 00:37:08;;;;;;;7.03;4.00;;;12.70;99.90;;;;;;5023717;28;20033;-67
2022/05/13 00:39:34;;;;;;;5.53;3.95;;;12.60;99.90;;;;;;5022775;28;20037;-68
2022/05/13 00:42:11;;;;;;;6.40;4.00;;;12.60;99.90;;;;;;5027423;28;20113;-68
2022/05/13 00:44:37;;;;;;;4.32;3.92;;;12.60;99.90;;;;;;5026288;28;20038;-68
2022/05/13 00:47:04;;;;;;;4.43;3.35;;;12.50;99.90;;;;;;5025099;28;20543;-68
2022/05/13 00:49:31;;;;;;;6.75;4.18;;;12.50;99.90;;;;;;5016751;28;20056;-68
2022/05/13 00:51:58;;;;;;;4.78;4.00;;;12.40;99.90;;;;;;5025287;28;20092;-67
2022/05/13 00:54:24;;;;;;;6.78;3.92;;;12.40;99.90;;;;;;5014819;28;20511;-67
2022/05/13 00:56:49;;;;;;;6.40;4.57;;;12.40;99.90;;;;;;5025159;28;20030;-67
2022/05/13 00:59:19;;;;;;;5.63;4.40;;;12.40;99.90;;;;;;5024763;28;20029;-67
2022/05/13 01:01:45;;;;;;;6.18;4.50;;;12.30;99.90;;;;;;5026631;28;20078;-67
2022/05/13 01:04:14;;;;;;;4.13;3.72;;;12.30;99.90;;;;;;5022328;28;20029;-67
2022/05/13 01:06:44;;;;;;;9.07;4.70;;;12.20;99.90;;;;;;5026256;28;20060;-68
2022/05/13 01:09:11;;;;;;;5.60;4.35;;;12.20;99.90;;;;;;5022272;28;20025;-67
2022/05/13 01:11:37;;;;;;;5.03;4.45;;;12.10;99.90;;;;;;5025658;28;20527;-67
2022/05/13 01:14:08;;;;;;;5.45;4.32;;;12.10;99.90;;;;;;5027798;28;20029;-67
2022/05/13 01:18:05;;;;;;;8.40;4.47;;;12.10;99.90;;;;;;5024626;28;20060;-67
2022/05/13 01:19:20;;;;;;;6.35;4.90;;;12.00;99.90;;;;;;5020211;28;20040;-67
2022/05/13 01:21:48;;;;;;;6.60;4.65;;;12.00;99.90;;;;;;5026851;28;20030;-67
2022/05/13 01:24:19;;;;;;;6.55;5.03;;;12.00;99.90;;;;;;5026041;28;20125;-67
2022/05/13 01:26:44;;;;;;;6.78;4.70;;;12.00;99.90;;;;;;5020574;28;20029;-67
2022/05/13 01:29:10;;;;;;;6.50;4.78;;;11.90;99.90;;;;;;5019193;28;20478;-67
2022/05/13 01:31:38;;;;;;;6.95;4.95;;;11.90;99.90;;;;;;5023070;28;20687;-68
2022/05/13 01:34:07;;;;;;;5.80;4.90;;;11.90;99.90;;;;;;5025489;28;20029;-68
2022/05/13 01:36:34;;;;;;;8.52;5.03;;;11.80;99.90;;;;;;5015611;28;20036;-67
2022/05/13 01:39:00;;;;;;;7.45;5.10;;;11.80;99.90;;;;;;5024158;28;20402;-67
2022/05/13 01:41:26;;;;;;;7.07;5.05;;;11.80;99.90;;;;;;5017095;28;20033;-67
2022/05/13 01:43:52;;;;;;;6.22;5.30;;;11.70;99.90;;;;;;5025785;28;20385;-67
2022/05/13 01:46:20;;;;;;;8.50;4.43;;;11.80;99.90;;;;;;5022968;28;20037;-68
2022/05/13 01:48:47;;;;;;;9.07;5.20;;;12.00;99.90;;;;;;5025027;28;20037;-68
2022/05/13 01:51:12;;;;;;;5.05;4.55;;;11.70;99.90;;;;;;5028559;28;20018;-68
2022/05/13 01:53:39;;;;;;;5.43;4.25;;;11.60;99.90;;;;;;5028923;28;20025;-68
2022/05/13 01:56:05;;;;;;;5.35;4.70;;;11.60;99.90;;;;;;5023162;28;20034;-67
2022/05/13 01:58:31;;;;;;;8.05;5.20;;;11.50;99.90;;;;;;5020527;28;20033;-68
2022/05/13 02:00:58;;;;;;;9.23;5.50;;;11.50;99.90;;;;;;5026875;28;20029;-67
2022/05/13 02:03:44;;;;;;;5.20;4.68;;;11.50;99.90;;;;;;5026710;28;20061;-67
2022/05/13 02:06:16;;;;;;;5.40;4.47;;;11.50;99.90;;;;;;5022904;28;20095;-67
2022/05/13 02:08:43;;;;;;;6.55;4.97;;;11.50;99.90;;;;;;5025190;28;20025;-67
2022/05/13 02:11:08;;;;;;;6.53;4.55;;;11.50;99.90;;;;;;5023117;28;20474;-67
2022/05/13 02:13:34;;;;;;;5.85;4.60;;;11.50;99.90;;;;;;5027095;28;20033;-67
2022/05/13 02:16:00;;;;;;;8.27;5.22;;;11.40;99.90;;;;;;5024453;28;20033;-67
2022/05/13 02:18:26;;;;;;;8.50;4.85;;;11.30;99.90;;;;;;5021527;28;20029;-67
2022/05/13 02:20:51;;;;;;;10.20;5.20;;;11.40;99.90;;;;;;5027443;28;20033;-68
2022/05/13 02:23:20;;;;;;;8.68;5.22;;;11.30;99.90;;;;;;5028156;28;20029;-68
2022/05/13 02:25:47;;;;;;;8.40;5.45;;;11.30;99.90;;;;;;5018772;28;20033;-67
2022/05/13 02:28:12;;;;;;;8.90;5.28;;;11.30;99.90;;;;;;5022646;28;20025;-67
2022/05/13 02:30:38;;;;;;;8.98;5.28;;;11.30;99.90;;;;;;5026060;28;20497;-67
2022/05/13 02:33:04;;;;;;;10.38;5.07;;;11.30;99.90;;;;;;5027437;28;20026;-67
2022/05/13 02:35:29;;;;;;;8.95;5.65;;;11.20;99.90;;;;;;5019280;28;20030;-67
2022/05/13 02:37:56;;;;;;;11.45;5.28;;;11.20;99.90;;;;;;5025004;28;20025;-67
2022/05/13 02:41:11;;;;;;;7.38;5.40;;;11.10;99.90;;;;;;5024825;28;20062;-67
2022/05/13 02:43:15;;;;;;;8.35;5.43;;;11.10;99.90;;;;;;5020432;28;20061;-68
2022/05/13 02:45:41;;;;;;;7.70;5.70;;;11.10;99.90;;;;;;5027423;28;20042;-68
2022/05/13 02:48:07;;;;;;;7.53;5.20;;;11.10;99.90;;;;;;5025251;28;20031;-67
2022/05/13 02:50:33;;;;;;;6.50;4.85;;;11.10;99.90;;;;;;5024927;28;20080;-67
2022/05/13 02:52:59;;;;;;;6.35;5.45;;;11.00;99.90;;;;;;5013409;28;20025;-68
2022/05/13 02:55:26;;;;;;;9.85;5.40;;;11.00;99.90;;;;;;5018734;28;20576;-67
2022/05/13 02:57:51;;;;;;;8.75;5.25;;;11.00;99.90;;;;;;5017928;28;20033;-68
2022/05/13 03:00:17;;;;;;;6.45;5.03;;;11.00;99.90;;;;;;5019213;28;20095;-68
2022/05/13 03:02:45;;;;;;;7.55;5.00;;;10.90;99.90;;;;;;5024183;28;20038;-67
2022/05/13 03:05:12;;;;;;;5.93;5.25;;;10.90;99.90;;;;;;5015471;28;20029;-68
2022/05/13 03:07:37;;;;;;;7.45;5.22;;;10.90;99.90;;;;;;5024381;28;20032;-68
2022/05/13 03:10:05;;;;;;;7.43;5.47;;;10.90;99.90;;;;;;5011984;28;20033;-68
2022/05/13 03:12:31;;;;;;;10.77;5.65;;;10.80;99.90;;;;;;5024872;28;20064;-68
2022/05/13 03:14:56;;;;;;;8.95;5.95;;;10.80;99.90;;;;;;5027651;28;20048;-67
2022/05/13 03:17:22;;;;;;;9.48;5.63;;;10.70;99.90;;;;;;5025679;28;20588;-67
2022/05/13 03:19:48;;;;;;;8.40;5.35;;;10.70;99.90;;;;;;5023656;28;20113;-68
2022/05/13 03:22:13;;;;;;;9.23;6.03;;;10.70;99.90;;;;;;5023565;28;20474;-67
2022/05/13 03:24:39;;;;;;;7.15;5.80;;;10.70;99.90;;;;;;5029003;28;20045;-67
2022/05/13 03:27:07;;;;;;;9.45;5.35;;;10.70;99.90;;;;;;5022237;28;20079;-67
2022/05/13 03:29:32;;;;;;;7.97;5.25;;;10.60;99.90;;;;;;5024609;28;20109;-67
2022/05/13 03:31:58;;;;;;;5.88;5.13;;;10.50;99.90;;;;;;5028490;28;20104;-67
2022/05/13 03:34:25;;;;;;;8.07;5.25;;;10.40;99.90;;;;;;5028939;28;20059;-67
2022/05/13 03:36:51;;;;;;;10.80;5.35;;;10.40;99.90;;;;;;5029311;28;20576;-67
2022/05/13 03:39:17;;;;;;;8.65;6.18;;;10.40;99.90;;;;;;5027059;28;20029;-67
2022/05/13 03:41:43;;;;;;;5.68;5.03;;;10.40;99.90;;;;;;5028777;28;20059;-67
2022/05/13 03:44:08;;;;;;;5.88;4.85;;;10.30;99.90;;;;;;5028807;28;20116;-68
2022/05/13 03:46:35;;;;;;;5.97;4.20;;;10.30;99.90;;;;;;5029085;28;20034;-67
2022/05/13 03:49:01;;;;;;;9.35;5.65;;;10.40;99.90;;;;;;5027904;28;20029;-68
2022/05/13 03:51:28;;;;;;;7.38;4.68;;;10.40;99.90;;;;;;5030582;28;20029;-67
2022/05/13 03:53:54;;;;;;;6.07;4.82;;;10.50;99.90;;;;;;5026810;28;20021;-68
2022/05/13 03:56:19;;;;;;;5.35;4.82;;;10.50;99.90;;;;;;5019355;28;20493;-67
2022/05/13 03:58:45;;;;;;;4.43;4.03;;;10.60;99.90;;;;;;5022151;28;20029;-68
2022/05/13 04:01:11;;;;;;;5.90;4.03;;;10.60;99.90;;;;;;5020981;28;20041;-68
2022/05/13 04:03:37;;;;;;;5.78;4.22;;;10.60;99.90;;;;;;5027047;28;20030;-68
2022/05/13 04:08:56;;;;;;;7.03;4.00;;;10.60;99.90;;;;;;5031379;28;20031;-67
2022/05/13 04:11:22;;;;;;;5.80;4.32;;;10.70;99.90;;;;;;5022050;28;20022;-68
2022/05/13 04:16:32;;;;;;;14.82;4.80;;;10.80;99.90;;;;;;5020914;28;20072;-67
2022/05/13 04:18:58;;;;;;;12.35;4.93;;;10.80;99.90;;;;;;5026240;28;20057;-68
2022/05/13 04:21:29;;;;;;;10.85;5.20;;;10.80;99.90;;;;;;5028079;28;20037;-68
2022/05/13 04:23:57;;;;;;;8.38;5.38;;;10.80;99.90;;;;;;5019630;28;20042;-67
2022/05/13 04:26:24;;;;;;;7.00;5.40;;;10.80;99.90;;;;;;5000608;28;20029;-67
2022/05/13 04:28:51;;;;;;;7.57;5.15;;;10.80;99.90;;;;;;4998886;28;20096;-67
2022/05/13 04:31:20;;;;;;;7.70;5.88;;;10.80;99.90;;;;;;5013871;28;20037;-67
2022/05/13 04:33:47;;;;;;;5.82;5.22;;;11.60;99.90;;;;;;5026401;28;20100;-68
2022/05/13 04:36:13;;;;;;;6.22;5.10;;;12.00;99.90;;;;;;5026209;28;20500;-68
2022/05/13 04:38:38;;;;;;;8.70;5.47;;;12.50;99.90;;;;;;5025123;28;20038;-67
2022/05/13 04:43:51;;;;;;;7.50;5.00;;;12.20;99.90;;;;;;5024984;28;20262;-67
2022/05/13 04:46:17;;;;;;;7.45;5.55;;;12.00;99.90;;;;;;5026332;28;20043;-67
2022/05/13 04:48:43;;;;;;;6.30;5.68;;;11.80;99.90;;;;;;5024926;28;20029;-67
2022/05/13 04:51:10;;;;;;;8.80;5.80;;;11.70;99.90;;;;;;5022296;28;20025;-67
2022/05/13 04:53:37;;;;;;;7.63;5.47;;;11.70;99.90;;;;;;5024971;28;20045;-68
2022/05/13 04:56:05;;;;;;;9.00;5.57;;;11.60;99.90;;;;;;5023951;28;20474;-68
2022/05/13 04:58:31;;;;;;;9.38;5.15;;;11.60;99.90;;;;;;5023061;28;20143;-68
2022/05/13 05:00:58;;;;;;;8.05;5.50;;;11.50;99.90;;;;;;5022707;28;20116;-68
2022/05/13 05:03:29;;;;;;;8.35;5.40;;;11.40;99.90;;;;;;5018782;28;20044;-68
2022/05/13 05:05:55;;;;;;;8.77;5.35;;;11.40;99.90;;;;;;5024286;28;20965;-68
2022/05/13 05:08:21;;;;;;;9.15;5.63;;;11.30;99.90;;;;;;5022178;28;20130;-67
2022/05/13 05:10:47;;;;;;;6.65;5.32;;;11.40;99.90;;;;;;5022375;28;20493;-68
2022/05/13 05:13:31;;;;;;;8.77;5.60;;;11.40;99.90;;;;;;5024636;28;20029;-67
2022/05/13 05:15:57;;;;;;;8.30;5.57;;;11.40;99.90;;;;;;5025462;28;20485;-67
2022/05/13 05:18:23;;;;;;;9.18;5.90;;;11.40;99.90;;;;;;5019814;28;20037;-67
2022/05/13 05:20:49;;;;;;;9.55;5.57;;;11.40;99.90;;;;;;5026822;28;20268;-67
2022/05/13 05:23:30;;;;;;;8.02;5.28;;;11.40;99.90;;;;;;5023580;28;20041;-67
2022/05/13 05:25:56;;;;;;;9.35;5.93;;;11.40;99.90;;;;;;5025203;28;20123;-67
2022/05/13 05:28:21;;;;;;;9.32;5.43;;;11.50;99.90;;;;;;5022372;28;20139;-67
2022/05/13 05:30:48;;;;;;;9.95;6.38;;;11.50;99.90;;;;;;5015106;28;20551;-67
2022/05/13 05:33:14;;;;;;;10.00;5.93;;;11.40;99.90;;;;;;5018951;28;20031;-68
2022/05/13 05:35:41;;;;;;;10.05;6.03;;;11.40;99.90;;;;;;5021670;28;20366;-68
2022/05/13 05:38:07;;;;;;;7.75;5.40;;;11.50;99.90;;;;;;5025525;28;20029;-68
2022/05/13 05:40:34;;;;;;;6.88;5.18;;;11.70;99.90;;;;;;5012566;28;20397;-68
2022/05/13 05:43:09;;;;;;;7.40;5.55;;;11.80;99.90;;;;;;5021922;28;20210;-67
2022/05/13 05:45:37;;;;;;;8.95;6.20;;;11.90;99.90;;;;;;5023811;28;20030;-68
2022/05/13 05:48:04;;;;;;;9.77;5.90;;;12.00;99.90;;;;;;5025000;28;20107;-68
2022/05/13 05:50:30;;;;;;;7.50;5.60;;;12.00;99.90;;;;;;5014341;28;20030;-68
2022/05/13 05:52:55;;;;;;;7.32;5.65;;;12.00;99.90;;;;;;5025195;28;20381;-67
2022/05/13 05:58:09;;;;;;;10.88;6.57;;;12.00;99.90;;;;;;5023509;28;20564;-67
2022/05/13 06:00:38;;;;;;;11.43;6.55;;;12.10;99.90;;;;;;5022739;28;20026;-68
2022/05/13 06:03:04;;;;;;;9.75;7.00;;;12.30;99.90;;;;;;5026032;28;20088;-68
2022/05/13 06:05:30;;;;;;;11.60;6.47;;;12.30;99.90;;;;;;5022258;28;20440;-68
2022/05/13 06:07:58;;;;;;;8.43;7.00;;;12.40;99.90;;;;;;5016999;28;20029;-68
2022/05/13 06:10:25;;;;;;;10.05;6.85;;;12.60;99.90;;;;;;5021114;28;20040;-68
2022/05/13 06:12:51;;;;;;;12.02;7.28;;;12.80;99.90;;;;;;5024725;28;20029;-68
2022/05/13 06:15:17;;;;;;;12.60;6.93;;;12.90;99.90;;;;;;5017783;28;20403;-68
2022/05/13 06:17:48;;;;;;;11.10;7.30;;;13.00;99.90;;;;;;5023628;28;20034;-68
2022/05/13 06:20:15;;;;;;;13.50;7.70;;;13.00;99.90;;;;;;5023925;28;20026;-68
2022/05/13 06:22:41;;;;;;;14.25;7.68;;;13.10;99.90;;;;;;5024746;28;20501;-68
2022/05/13 06:25:08;;;;;;;12.82;7.82;;;13.20;99.90;;;;;;5020689;28;20052;-67
2022/05/13 06:27:35;;;;;;;9.40;7.07;;;13.20;99.90;;;;;;5023296;28;20104;-68
2022/05/13 06:30:03;;;;;;;12.32;7.38;;;13.30;99.90;;;;;;5020662;28;20049;-68
2022/05/13 06:32:28;;;;;;;13.38;7.82;;;13.30;99.90;;;;;;5023418;28;20525;-68
2022/05/13 06:34:54;;;;;;;14.32;7.60;;;13.30;99.90;;;;;;5009166;28;20088;-67
2022/05/13 06:37:20;;;;;;;12.25;7.10;;;13.40;99.90;;;;;;5016649;28;20037;-67
2022/05/13 06:39:45;;;;;;;9.40;7.13;;;13.40;99.90;;;;;;5024100;28;20021;-68
2022/05/13 06:42:11;;;;;;;16.63;7.30;;;13.40;99.90;;;;;;5020248;28;20025;-68
2022/05/13 06:44:37;;;;;;;11.32;7.05;;;13.50;99.90;;;;;;5020615;28;20036;-68
2022/05/13 06:47:03;;;;;;;11.88;7.03;;;13.50;99.90;;;;;;5022410;28;20034;-68
2022/05/13 06:49:28;;;;;;;14.27;7.20;;;13.60;99.90;;;;;;5020360;28;20526;-68
2022/05/13 06:51:54;;;;;;;9.18;7.15;;;13.60;99.90;;;;;;5020882;28;20033;-68
2022/05/13 06:54:19;;;;;;;11.98;6.75;;;13.70;99.90;;;;;;5024770;28;20064;-68
2022/05/13 06:56:47;;;;;;;10.50;7.18;;;13.90;99.90;;;;;;5023864;28;20409;-68
2022/05/13 06:59:12;;;;;;;8.43;6.50;;;14.10;99.90;;;;;;5026170;28;20079;-68
2022/05/13 07:01:38;;;;;;;10.93;7.00;;;14.40;99.90;;;;;;5026851;28;20029;-68
2022/05/13 07:04:04;;;;;;;11.55;5.05;;;14.80;99.90;;;;;;5024072;28;20665;-69
2022/05/13 07:06:30;;;;;;;8.05;3.67;;;15.10;99.90;;;;;;5027492;28;20036;-68
2022/05/13 07:08:56;;;;;;;12.45;3.30;;;15.20;99.90;;;;;;5028827;28;20029;-69
2022/05/13 07:11:22;;;;;;;13.00;3.60;;;15.40;99.90;;;;;;5028631;28;20059;-69
2022/05/13 07:13:48;;;;;;;12.13;2.95;;;15.60;99.90;;;;;;5029536;28;20029;-70
2022/05/13 07:16:14;;;;;;;9.88;2.90;;;15.90;99.90;;;;;;5026218;28;20243;-70
2022/05/13 07:18:41;;;;;;;10.18;2.60;;;16.30;99.90;;;;;;5027533;28;20029;-69
2022/05/13 07:21:06;;;;;;;7.95;2.63;;;16.60;99.90;;;;;;5027345;28;20033;-70
2022/05/13 07:23:32;;;;;;;7.57;2.38;;;17.00;99.90;;;;;;5026365;28;20030;-70
2022/05/13 07:25:58;;;;;;;5.93;2.22;;;17.10;99.90;;;;;;5015046;28;20127;-69
2022/05/13 07:28:26;;;;;;;6.93;2.20;;;17.00;99.20;;;;;;5015193;28;20041;-70
2022/05/13 07:30:53;;;;;;;10.45;2.40;;;16.80;99.60;;;;;;5028701;28;20054;-70
2022/05/13 07:33:20;;;;;;;9.45;2.08;;;16.90;98.80;;;;;;5027805;28;20064;-69
2022/05/13 07:35:46;;;;;;;7.68;2.38;;;16.70;97.90;;;;;;5027160;28;20030;-70
2022/05/13 07:38:12;;;;;;;9.85;2.35;;;16.70;98.30;;;;;;5024849;28;20040;-69
2022/05/13 07:43:22;;;;;;;7.70;2.20;;;16.70;97.40;;;;;;5025372;28;20425;-70
2022/05/13 07:45:47;;;;;;;4.85;2.00;;;16.90;96.60;;;;;;5026536;28;20025;-70
2022/05/13 07:48:14;;;;;;;8.02;2.10;;;17.20;96.50;;;;;;5024863;28;20049;-70
2022/05/13 07:50:40;;;;;;;6.10;1.77;;;17.50;95.10;;;;;;5028320;28;20123;-70
2022/05/13 07:53:06;;;;;;;8.68;2.40;;;17.90;94.40;;;;;;5025010;28;20493;-70
2022/05/13 07:55:32;;;;;;;7.47;2.10;;;18.10;94.00;;;;;;5023551;28;20501;-70
2022/05/13 07:57:58;;;;;;;6.03;1.60;;;18.20;93.90;;;;;;5022756;28;20045;-70
2022/05/13 08:00:25;;;;;;;5.30;1.70;;;18.40;91.90;;;;;;5024167;28;20215;-70
2022/05/13 08:03:12;;;;;;;5.60;1.45;;;18.50;90.50;;;;;;5021737;28;20034;-72
2022/05/13 08:05:44;;;;;;;5.13;1.40;;;18.60;90.40;;;;;;5028760;28;20266;-73
2022/05/13 08:08:20;;;;;;;4.22;1.38;;;18.80;89.50;;;;;;5025026;28;20022;-72
2022/05/13 08:10:54;;;;;;;7.15;1.50;;;19.10;87.80;;;;;;5024638;28;20373;-73
2022/05/13 08:13:20;;;;;;;6.75;1.42;;;19.40;85.60;;;;;;5028152;28;20021;-72
2022/05/13 08:15:46;;;;;;;4.32;1.40;;;19.30;86.30;;;;;;5026574;28;20029;-72
2022/05/13 08:18:13;;;;;;;7.32;2.03;;;19.10;86.20;;;;;;5028589;28;20037;-73
2022/05/13 08:20:40;;;;;;;4.85;1.65;;;19.00;86.40;;;;;;5024329;28;20057;-72
2022/05/13 08:23:06;;;;;;;8.18;1.67;;;18.80;85.60;;;;;;5025246;28;20056;-72
2022/05/13 08:25:32;;;;;;;3.42;1.30;;;18.80;86.20;;;;;;5027723;28;20462;-72
2022/05/13 08:27:58;;;;;;;5.57;1.50;;;18.70;86.60;;;;;;5026516;28;20132;-72
2022/05/13 08:30:24;;;;;;;7.90;1.80;;;18.80;87.10;;;;;;5021887;28;20029;-72
2022/05/13 08:32:49;;;;;;;6.03;1.30;;;18.80;87.40;;;;;;5014260;28;20036;-71
2022/05/13 08:35:16;;;;;;;6.95;1.92;;;19.00;86.60;;;;;;5015070;28;20112;-72
2022/05/13 08:37:50;;;;;;;5.60;1.92;;;19.00;85.50;;;;;;5025783;28;20033;-72
2022/05/13 08:40:54;;;;;;;7.13;1.85;;;18.80;86.80;;;;;;5023538;28;20032;-72
2022/05/13 08:43:38;;;;;;;11.55;2.00;;;18.60;86.30;;;;;;4944566;29;20046;-71
2022/05/13 08:46:16;;;;;;;8.73;2.28;;;18.60;85.90;;;;;;5019503;28;20037;-72
2022/05/13 08:48:56;;;;;;;3.55;1.67;;;18.50;85.30;;;;;;5021763;28;20389;-72
2022/05/13 08:51:48;;;;;;;9.77;2.30;;;18.60;85.70;;;;;;5022999;28;20064;-73
2022/05/13 08:54:18;;;;;;;6.50;2.13;;;18.50;85.40;;;;;;5016349;28;20029;-72
2022/05/13 08:56:48;;;;;;;7.22;1.90;;;18.30;86.10;;;;;;5027105;28;20029;-71
2022/05/13 08:59:18;;;;;;;7.70;2.33;;;18.00;85.80;;;;;;5024668;28;20101;-71
2022/05/13 09:01:54;;;;;;;8.55;2.70;;;17.80;87.90;;;;;;5022348;28;20040;-72
2022/05/13 09:04:42;;;;;;;12.30;2.72;;;17.50;88.80;;;;;;5023703;28;20033;-72
2022/05/13 09:07:16;;;;;;;7.22;2.75;;;17.30;89.40;;;;;;5017570;28;20029;-72
2022/05/13 09:09:45;;;;;;;10.75;3.22;;;17.10;90.00;;;;;;5022865;28;20066;-72
2022/05/13 09:12:18;;;;;;;6.70;2.80;;;17.10;88.70;;;;;;5027426;28;20032;-72
2022/05/13 09:14:59;;;;;;;6.70;2.50;;;17.10;89.40;;;;;;5026104;28;20477;-73
2022/05/13 09:17:55;;;;;;;9.55;2.88;;;17.20;89.50;;;;;;5025265;28;20030;-74
2022/05/13 09:20:23;;;;;;;5.68;2.40;;;17.40;90.00;;;;;;5021728;28;20029;-72
2022/05/13 09:22:56;;;;;;;5.95;2.38;;;17.90;90.70;;;;;;5023266;28;20040;-72
2022/05/13 09:25:28;;;;;;;6.10;1.70;;;18.30;85.20;;;;;;5026950;28;20084;-72
2022/05/13 09:28:09;;;;;;;6.90;1.80;;;18.40;83.60;;;;;;5022993;28;20473;-72
2022/05/13 09:30:41;;;;;;;6.05;1.90;;;18.30;83.20;;;;;;5022572;28;20580;-71
2022/05/13 09:33:24;;;;;;;8.98;1.80;;;18.10;79.60;;;;;;5024015;28;20088;-75
2022/05/13 09:35:54;;;;;;;4.57;1.95;;;17.90;80.80;;;;;;5011985;28;20498;-73
2022/05/13 09:38:24;;;;;;;7.90;2.03;;;17.70;82.40;;;;;;5023343;28;20115;-71
2022/05/13 09:41:04;;;;;;;9.27;2.35;;;17.60;83.80;;;;;;5025059;28;20288;-72
2022/05/13 09:43:37;;;;;;;10.48;2.42;;;17.50;84.40;;;;;;5026204;28;20053;-72
2022/05/13 09:46:08;;;;;;;9.75;2.45;;;17.40;84.50;;;;;;5024839;28;20103;-72
2022/05/13 09:48:38;;;;;;;10.52;1.80;;;17.70;82.40;;;;;;5023115;28;20052;-71
2022/05/13 09:51:25;;;;;;;5.80;1.65;;;17.90;81.20;;;;;;5027021;28;20024;-72
2022/05/13 09:54:23;;;;;;;9.05;2.20;;;18.00;81.90;;;;;;5025557;28;20351;-73
2022/05/13 09:56:55;;;;;;;7.35;2.10;;;18.00;81.00;;;;;;4983475;28;20579;-72
2022/05/13 09:59:25;;;;;;;3.17;1.83;;;18.00;80.90;;;;;;5010811;28;20065;-74
2022/05/13 10:01:52;;;;;;;4.80;2.28;;;18.00;81.80;;;;;;5015169;28;20053;-71
2022/05/13 10:04:23;;;;;;;4.30;1.73;;;18.20;81.80;;;;;;5025070;28;20026;-73
2022/05/13 10:06:49;;;;;;;6.10;1.95;;;18.50;79.80;;;;;;5024328;28;20084;-73
2022/05/13 10:15:17;;;;;;;6.00;1.58;;;19.80;75.50;;;;;;5010781;28;19955;-72
2022/05/13 10:17:50;;;;;;;2.30;1.35;;;20.00;71.80;;;;;;5021402;28;20481;-72
2022/05/13 10:20:35;;;;;;;4.72;1.40;;;19.90;71.70;;;;;;5019377;28;20531;-72
2022/05/13 10:23:17;;;;;;;5.80;1.40;;;19.70;71.70;;;;;;5024185;28;20502;-72
2022/05/13 10:25:45;;;;;;;6.20;1.15;;;19.40;69.40;;;;;;5024355;28;20103;-72
2022/05/13 10:28:15;;;;;;;4.35;0.98;;;19.40;69.20;;;;;;5020310;28;20025;-72
2022/05/13 10:30:52;;;;;;;3.13;1.27;;;19.50;69.20;;;;;;5018019;28;20474;-72
2022/05/13 10:33:40;;;;;;;3.28;0.90;;;19.70;78.10;;;;;;5016957;28;20026;-72
2022/05/13 10:36:09;;;;;;;3.45;0.77;;;20.00;76.90;;;;;;5020566;28;20401;-72
2022/05/13 10:38:43;;;;;;;2.72;1.00;;;20.30;75.50;;;;;;5019820;28;20087;-72
2022/05/13 10:41:42;;;;;;;5.68;1.00;;;20.50;78.00;;;;;;5022143;28;20026;-72
2022/05/13 10:44:23;;;;;;;5.68;1.00;;;20.80;75.00;;;;;;4668709;28;10000530;-72
2022/05/13 10:47:02;;;;;;;4.20;1.10;;;21.00;70.30;;;;;;5022870;28;20045;-72
2022/05/13 10:49:46;;;;;;;5.80;1.00;;;21.10;65.80;;;;;;5007679;28;20088;-72
2022/05/13 10:52:38;;;;;;;4.68;1.10;;;21.10;64.30;;;;;;5024089;28;20724;-72
2022/05/13 10:55:38;;;;;;;1.77;0.65;;;21.10;64.20;;;;;;5022751;28;20528;-71
2022/05/13 10:58:42;;;;;;;6.25;1.10;;;21.10;65.20;;;;;;5014349;28;20525;-71
2022/05/13 11:01:39;;;;;;;4.70;1.60;;;21.30;64.20;;;;;;5019571;28;20026;-72
2022/05/13 11:04:17;;;;;;;4.25;1.10;;;21.40;65.00;;;;;;5020244;28;20029;-71
2022/05/13 11:07:41;;;;;;;2.97;0.80;;;21.40;63.20;;;;;;5022088;28;20568;-71
2022/05/13 11:10:36;;;;;;;2.75;0.98;;;21.10;62.00;;;;;;4995669;28;20092;-72
2022/05/13 11:13:41;;;;;;;5.28;0.70;;;20.90;64.20;;;;;;5013005;28;20029;-71
2022/05/13 11:16:12;;;;;;;3.85;0.95;;;20.80;65.70;;;;;;5012761;28;20558;-71
2022/05/13 11:18:49;;;;;;;2.58;0.70;;;20.70;65.60;;;;;;5023504;28;20030;-71
2022/05/13 11:21:51;;;;;;;3.72;0.88;;;20.60;63.80;;;;;;5017580;28;20087;-72
2022/05/13 11:27:24;;;;;;;3.30;1.05;;;20.60;64.10;;;;;;5021189;28;20048;-72
2022/05/13 11:30:12;;;;;;;4.28;0.95;;;20.60;62.90;;;;;;5021850;28;20032;-72
2022/05/13 11:32:50;;;;;;;6.38;1.08;;;20.40;62.70;;;;;;5021302;28;20363;-72
2022/05/13 11:35:48;;;;;;;5.32;1.00;;;20.30;63.10;;;;;;5018736;28;20512;-72
2022/05/13 11:38:21;;;;;;;4.00;0.80;;;20.20;64.40;;;;;;5014181;28;20485;-71
2022/05/13 11:41:08;;;;;;;2.10;0.80;;;20.20;63.90;;;;;;5017322;28;20151;-71
2022/05/13 11:43:54;;;;;;;5.03;0.90;;;20.20;65.00;;;;;;4666884;28;10000023;-71
2022/05/13 11:46:20;;;;;;;5.10;1.10;;;20.30;64.10;;;;;;5020119;28;20044;-71
2022/05/13 11:48:48;;;;;;;3.40;1.00;;;20.20;65.10;;;;;;5014822;28;21295;-71
2022/05/13 11:51:16;;;;;;;1.80;0.80;;;20.20;64.50;;;;;;5021819;28;20099;-71
2022/05/13 11:53:41;;;;;;;2.80;0.80;;;20.20;64.40;;;;;;5024827;28;20025;-71
2022/05/13 11:56:31;;;;;;;4.00;0.70;;;20.50;65.30;;;;;;5020526;28;20033;-71
2022/05/13 11:59:04;;;;;;;2.78;1.00;;;20.80;63.80;;;;;;5020421;28;20375;-71
2022/05/13 12:01:38;;;;;;;8.95;0.90;;;21.10;61.50;;;;;;5021588;28;20621;-71
2022/05/13 12:04:13;;;;;;;4.40;1.10;;;21.30;60.70;;;;;;5014310;28;20030;-71
2022/05/13 12:06:50;;;;;;;2.97;0.90;;;21.40;60.50;;;;;;5016996;28;20022;-71
2022/05/13 12:09:17;;;;;;;2.45;0.90;;;21.40;61.90;;;;;;5015583;28;20043;-71
2022/05/13 12:12:00;;;;;;;2.78;0.95;;;21.60;61.50;;;;;;5025928;28;20120;-71
2022/05/13 12:14:37;;;;;;;4.30;1.13;;;21.80;59.90;;;;;;5021624;28;20033;-71
2022/05/13 12:17:11;;;;;;;3.58;1.00;;;22.20;59.70;;;;;;5019200;28;20029;-70
2022/05/13 12:20:03;;;;;;;3.88;0.80;;;22.30;61.80;;;;;;5015073;28;20053;-71
2022/05/13 12:22:29;;;;;;;5.28;1.00;;;22.50;63.70;;;;;;5025023;28;20112;-71
2022/05/13 12:25:00;;;;;;;4.32;1.00;;;22.60;64.50;;;;;;5022689;28;20526;-72
2022/05/13 12:27:44;;;;;;;3.08;0.90;;;22.90;64.20;;;;;;5021964;28;20033;-69
2022/05/13 12:30:31;;;;;;;7.47;1.33;;;23.10;69.00;;;;;;5023830;28;20033;-70
2022/05/13 12:33:17;;;;;;;2.88;0.90;;;23.50;67.20;;;;;;5017215;28;20026;-71
2022/05/13 12:39:07;;;;;;;5.18;1.10;;;23.60;56.40;;;;;;5015409;28;20040;-69
2022/05/13 12:41:41;;;;;;;3.65;0.95;;;23.30;65.10;;;;;;5016965;28;20038;-69
2022/05/13 12:44:13;;;;;;;3.35;0.88;;;23.00;63.00;;;;;;5015386;28;20034;-70
2022/05/13 12:47:13;;;;;;;2.42;0.80;;;22.90;64.30;;;;;;5014309;28;20526;-70
2022/05/13 12:49:48;;;;;;;5.10;1.10;;;22.70;63.90;;;;;;5019272;28;20145;-70
2022/05/13 12:52:20;;;;;;;2.60;1.00;;;22.60;63.90;;;;;;5021555;28;20069;-71
2022/05/13 12:55:18;;;;;;;3.05;1.00;;;22.20;62.60;;;;;;5021033;28;20033;-71
2022/05/13 12:57:55;;;;;;;5.35;1.10;;;22.20;63.60;;;;;;5021691;28;20030;-71
2022/05/13 13:00:48;;;;;;;4.97;0.95;;;22.70;67.50;;;;;;5019802;28;20030;-70
2022/05/13 13:03:14;;;;;;;5.47;0.93;;;23.10;65.70;;;;;;5003120;28;20126;-72
2022/05/13 13:05:46;;;;;;;4.93;0.90;;;23.20;67.00;;;;;;5020648;28;20029;-70
2022/05/13 13:08:20;;;;;;;3.63;0.85;;;23.10;64.30;;;;;;5017713;28;20021;-70
2022/05/13 13:10:48;;;;;;;;;;;23.10;64.40;;;;;;5022711;28;20048;-70
2022/05/13 13:13:24;;;;;;;2.45;0.80;;;22.90;63.60;;;;;;5022732;28;19924;-70
2022/05/13 13:15:55;;;;;;;3.17;0.85;;;22.90;64.80;;;;;;5021115;28;20127;-71
2022/05/13 13:18:32;;;;;;;4.95;0.95;;;22.90;63.80;;;;;;5020906;28;20033;-70
2022/05/13 13:21:00;;;;;;;4.78;1.10;;;22.80;56.20;;;;;;5008872;28;20502;-70
2022/05/13 13:23:35;;;;;;;7.60;0.90;;;22.80;57.30;;;;;;5022786;28;20080;-70
2022/05/13 13:26:03;;;;;;;4.25;1.00;;;22.60;56.60;;;;;;5020740;28;20129;-70
2022/05/13 13:28:32;;;;;;;3.25;0.90;;;22.50;56.30;;;;;;5009134;28;20029;-71
2022/05/13 13:30:59;;;;;;;3.88;0.70;;;22.30;57.40;;;;;;5021743;28;20524;-70